PANO2: Poteau River At Panama

Data processed at Fri Jun 05 2020 23:15


All information presented herein is the property of the government of the United States of America and may be revised or deleted at any time without prior notice.
Dissemination of this information without the expressed written consent of the Public Affairs Office, Tulsa District U.S. Army Corps of Engineers is strictly prohibited.
These data are gathered electronically and, as presented, have not undergone any form of quality control. These data are not guaranteed to be valid or correct.
Go to home page.
Go to station list.
Go to home page.

Upstream stations:

Downstream station:
Previous Day
Next Day
Current Day
    
SHEF ID:       PANO2     Poteau River near Panama, OK
STATION TYPE:  
Regulating: Stage =    29.00, Flow =    10544

               PRECIP     STAGE  RIV-FLOW  BAT-LOAD
                   in        ft       cfs      volt
              Ccp-Rev   Ccp-Rev   Ccp-Rev   Ccp-Rev
(US/Central)
06/05 00:00      0.00     25.09      7642     12.65
06/05 01:00      0.00     25.13      7666     12.65
06/05 02:00      0.00     25.14      7673     12.65
06/05 03:00      0.00     25.17      7691     12.65
06/05 04:00      0.00     25.19      7704     12.65
06/05 05:00      0.00     25.20      7710     12.65
06/05 06:00      0.00     25.20      7710     12.57
06/05 07:00      0.00     25.18      7698     12.57
06/05 08:00      0.00     25.18      7698     12.65
06/05 09:00      0.00     25.17      7691     12.73
06/05 10:00      0.00     25.15      7679     12.73
06/05 11:00      0.00     25.14      7673     12.81
06/05 12:00      0.00     25.13      7666     12.89
06/05 13:00      0.00     25.12      7660     12.81
06/05 14:00      0.00     25.10      7648     12.81
06/05 15:00      0.00     25.06      7623     12.97
06/05 16:00      0.00     25.06      7623     12.81
06/05 17:00      0.00     25.05      7617     12.73
06/05 18:00      0.00     25.03      7604     12.73
06/05 19:00      0.00     25.02      7598     12.65
06/05 20:00      0.00     24.99      7579     12.65
06/05 21:00      0.00     24.98      7573     12.65
06/05 22:00      0.00     24.98      7573     12.65
06/05 23:00      ----      ----      ----      ----